Time;durP1;ratioP1;P1;durP2;ratioP2;P2;SDS_P1;SDS_P2;PMS_P1;PMS_P2;Temp;Humidity;BMP_temperature;BMP_pressure;BME280_temperature;BME280_humidity;BME280_pressure;Samples;Min_cycle;Max_cycle;Signal;HPM_P1;HPM_P2
2022/04/23 00:02:10;;;;;;;19.58;12.80;;;11.40;99.90;;;;;;5030577;28;20477;-80
2022/04/23 00:04:36;;;;;;;19.00;12.73;;;11.40;99.90;;;;;;5028999;28;20450;-77
2022/04/23 00:07:02;;;;;;;17.30;12.15;;;11.40;99.90;;;;;;5032503;28;20503;-79
2022/04/23 00:09:27;;;;;;;22.60;13.25;;;11.30;99.90;;;;;;5030020;28;20057;-79
2022/04/23 00:11:55;;;;;;;18.75;14.10;;;11.30;99.90;;;;;;5031473;28;20025;-79
2022/04/23 00:14:21;;;;;;;21.45;13.07;;;11.20;99.90;;;;;;5041492;28;20049;-79
2022/04/23 00:16:50;;;;;;;21.95;13.13;;;11.20;99.90;;;;;;5035422;28;20029;-79
2022/04/23 00:19:16;;;;;;;18.42;12.88;;;11.20;99.90;;;;;;5034931;28;20673;-79
2022/04/23 00:21:42;;;;;;;18.40;12.93;;;11.10;99.90;;;;;;5027757;28;20037;-79
2022/04/23 00:24:08;;;;;;;20.98;13.25;;;11.10;99.90;;;;;;5032652;28;20733;-79
2022/04/23 00:26:34;;;;;;;20.92;14.02;;;11.00;99.90;;;;;;5028830;28;20100;-78
2022/04/23 00:28:59;;;;;;;20.52;13.85;;;11.00;99.90;;;;;;5031904;28;20025;-79
2022/04/23 00:31:26;;;;;;;22.48;14.23;;;11.00;99.90;;;;;;5026217;28;20026;-79
2022/04/23 00:33:52;;;;;;;22.83;13.93;;;10.90;99.90;;;;;;5028897;28;20030;-79
2022/04/23 00:36:19;;;;;;;21.83;14.55;;;10.90;99.90;;;;;;5030339;28;20037;-79
2022/04/23 00:38:49;;;;;;;24.27;14.27;;;10.80;99.90;;;;;;5032041;28;20431;-78
2022/04/23 00:44:00;;;;;;;23.38;15.43;;;10.80;99.90;;;;;;5029250;28;20099;-79
2022/04/23 00:46:26;;;;;;;20.17;14.15;;;10.70;99.90;;;;;;5028948;28;20033;-79
2022/04/23 00:48:52;;;;;;;24.65;15.40;;;10.70;99.90;;;;;;5032013;28;20033;-80
2022/04/23 00:51:18;;;;;;;21.15;15.00;;;10.70;99.90;;;;;;5033455;28;20021;-79
2022/04/23 00:53:46;;;;;;;23.27;14.60;;;10.60;99.90;;;;;;5031911;28;20030;-80
2022/04/23 00:56:13;;;;;;;25.25;15.25;;;10.70;99.90;;;;;;5028740;28;20033;-79
2022/04/23 00:58:39;;;;;;;24.42;15.95;;;10.70;99.90;;;;;;5029201;28;20139;-80
2022/04/23 01:01:05;;;;;;;25.77;17.08;;;10.60;99.90;;;;;;5027345;28;20430;-79
2022/04/23 01:03:32;;;;;;;26.05;17.35;;;10.60;99.90;;;;;;5028553;28;20033;-79
2022/04/23 01:05:58;;;;;;;28.83;16.50;;;10.60;99.90;;;;;;5027478;28;20029;-80
2022/04/23 01:08:26;;;;;;;26.58;17.60;;;10.50;99.90;;;;;;5029988;28;20044;-80
2022/04/23 01:10:52;;;;;;;29.85;19.23;;;10.50;99.90;;;;;;5025700;28;20466;-80
2022/04/23 01:13:18;;;;;;;29.15;19.70;;;10.50;99.90;;;;;;5023334;28;20128;-80
2022/04/23 01:16:04;;;;;;;27.58;18.52;;;10.40;99.90;;;;;;5027821;28;20040;-80
2022/04/23 01:18:30;;;;;;;29.35;20.15;;;10.40;99.90;;;;;;5027416;28;20030;-79
2022/04/23 01:20:57;;;;;;;32.58;19.35;;;10.40;99.90;;;;;;5027007;28;20037;-79
2022/04/23 01:23:23;;;;;;;34.08;20.00;;;10.40;99.90;;;;;;5027166;28;20132;-79
2022/04/23 01:25:55;;;;;;;32.90;19.38;;;10.40;99.90;;;;;;5036516;28;20091;-79
2022/04/23 01:28:21;;;;;;;31.52;20.25;;;10.40;99.90;;;;;;5030086;28;20022;-80
2022/04/23 01:30:49;;;;;;;32.28;20.20;;;10.30;99.90;;;;;;5033114;28;20140;-80
2022/04/23 01:33:15;;;;;;;32.85;19.80;;;10.20;99.90;;;;;;5025662;28;20018;-80
2022/04/23 01:35:40;;;;;;;32.60;20.20;;;10.20;99.90;;;;;;5029355;28;20033;-79
2022/04/23 01:38:06;;;;;;;31.42;20.33;;;10.20;99.90;;;;;;5025841;28;20022;-80
2022/04/23 01:40:32;;;;;;;33.92;20.58;;;10.10;99.90;;;;;;5029983;28;20764;-79
2022/04/23 01:42:58;;;;;;;31.38;21.00;;;10.10;99.90;;;;;;5029474;28;20432;-80
2022/04/23 01:45:24;;;;;;;37.22;21.55;;;10.10;99.90;;;;;;5027137;28;20026;-80
2022/04/23 01:47:50;;;;;;;36.05;22.55;;;10.10;99.90;;;;;;5034494;28;20079;-80
2022/04/23 01:50:15;;;;;;;37.90;21.98;;;10.00;99.90;;;;;;5026163;28;20025;-80
2022/04/23 01:52:41;;;;;;;37.25;21.27;;;10.00;99.90;;;;;;5028559;28;20040;-80
2022/04/23 01:55:07;;;;;;;33.28;21.85;;;10.00;99.90;;;;;;5034008;28;20120;-79
2022/04/23 01:57:33;;;;;;;39.50;22.98;;;10.00;99.90;;;;;;5034402;28;20041;-80
2022/04/23 01:59:58;;;;;;;35.92;21.90;;;10.00;99.90;;;;;;5029243;28;20033;-79
2022/04/23 02:02:24;;;;;;;36.03;23.05;;;10.00;99.90;;;;;;5028012;28;20029;-79
2022/04/23 02:04:50;;;;;;;40.30;23.23;;;9.90;99.90;;;;;;5029889;28;20091;-80
2022/04/23 02:07:15;;;;;;;34.85;22.02;;;9.90;99.90;;;;;;5027560;28;20481;-80
2022/04/23 02:09:41;;;;;;;38.25;23.15;;;9.80;99.90;;;;;;5030853;28;20036;-80
2022/04/23 02:12:07;;;;;;;35.20;21.70;;;9.80;99.90;;;;;;5034966;28;20036;-80
2022/04/23 02:14:33;;;;;;;37.85;22.60;;;9.80;99.90;;;;;;5041154;28;20424;-80
2022/04/23 02:16:58;;;;;;;35.80;23.48;;;9.80;99.90;;;;;;5028261;28;20102;-80
2022/04/23 02:19:24;;;;;;;34.67;23.33;;;9.80;99.90;;;;;;5030657;28;20048;-80
2022/04/23 02:21:50;;;;;;;39.30;24.10;;;9.80;99.90;;;;;;5027487;28;20025;-80
2022/04/23 02:24:16;;;;;;;33.35;22.05;;;9.80;99.90;;;;;;5028382;28;20021;-79
2022/04/23 02:26:42;;;;;;;36.88;23.33;;;9.70;99.90;;;;;;5032026;28;20036;-79
2022/04/23 02:29:07;;;;;;;33.70;21.85;;;9.70;99.90;;;;;;5035866;28;20045;-78
2022/04/23 02:31:33;;;;;;;38.95;23.80;;;9.70;99.90;;;;;;5028897;28;20018;-79
2022/04/23 02:33:58;;;;;;;38.45;23.10;;;9.60;99.90;;;;;;5031342;28;20029;-79
2022/04/23 02:36:24;;;;;;;38.72;24.05;;;9.60;99.90;;;;;;5029497;28;20055;-79
2022/04/23 02:38:51;;;;;;;34.63;21.85;;;9.60;99.90;;;;;;5027358;28;20022;-79
2022/04/23 02:41:17;;;;;;;37.05;21.95;;;9.50;99.90;;;;;;5041673;28;20034;-79
2022/04/23 02:43:45;;;;;;;34.50;22.70;;;9.50;99.90;;;;;;5030676;28;20060;-79
2022/04/23 02:46:14;;;;;;;38.10;23.42;;;9.50;99.90;;;;;;5027458;28;20082;-79
2022/04/23 02:48:40;;;;;;;34.53;23.25;;;9.50;99.90;;;;;;5029021;28;20598;-79
2022/04/23 02:51:05;;;;;;;36.25;21.85;;;9.50;99.90;;;;;;5025715;28;20104;-78
2022/04/23 02:53:32;;;;;;;37.38;22.85;;;9.50;99.90;;;;;;5031113;28;20421;-79
2022/04/23 02:55:57;;;;;;;33.55;21.92;;;9.40;99.90;;;;;;5019251;28;20589;-78
2022/04/23 02:58:27;;;;;;;34.40;23.25;;;9.40;99.90;;;;;;5026729;28;20037;-76
2022/04/23 03:00:53;;;;;;;35.45;23.25;;;9.40;99.90;;;;;;5020264;28;20041;-78
2022/04/23 03:03:19;;;;;;;36.20;22.75;;;9.30;99.90;;;;;;5023186;28;20079;-77
2022/04/23 03:05:45;;;;;;;33.72;21.73;;;9.30;99.90;;;;;;5034912;28;20030;-77
2022/04/23 03:08:12;;;;;;;34.00;22.40;;;9.30;99.90;;;;;;5060057;23;20129;-86
2022/04/23 03:10:39;;;;;;;34.85;22.63;;;9.30;99.90;;;;;;5029379;28;20030;-85
2022/04/23 03:13:07;;;;;;;33.33;22.27;;;9.20;99.90;;;;;;5030359;28;20378;-85
2022/04/23 03:15:34;;;;;;;36.17;23.70;;;9.20;99.90;;;;;;5024402;28;20037;-84
2022/04/23 03:18:08;;;;;;;30.90;21.25;;;9.20;99.90;;;;;;5028056;28;20038;-84
2022/04/23 03:20:35;;;;;;;33.33;22.05;;;9.20;99.90;;;;;;5025840;28;20026;-84
2022/04/23 03:23:00;;;;;;;34.78;22.23;;;9.20;99.90;;;;;;5020553;28;20088;-85
2022/04/23 03:25:26;;;;;;;31.15;21.88;;;9.10;99.90;;;;;;5018521;28;20022;-84
2022/04/23 03:27:52;;;;;;;34.92;22.05;;;9.10;99.90;;;;;;5023139;28;20100;-84
2022/04/23 03:30:20;;;;;;;32.13;22.33;;;9.10;99.90;;;;;;5027715;28;20113;-84
2022/04/23 03:32:46;;;;;;;33.88;21.60;;;9.10;99.90;;;;;;5020606;28;20113;-84
2022/04/23 03:35:12;;;;;;;33.80;22.15;;;9.10;99.90;;;;;;5026010;28;20037;-85
2022/04/23 03:37:42;;;;;;;34.40;22.52;;;9.00;99.90;;;;;;5023445;28;20471;-84
2022/04/23 03:40:09;;;;;;;34.05;22.48;;;9.00;99.90;;;;;;5021841;28;20041;-84
2022/04/23 03:42:36;;;;;;;33.08;21.92;;;9.00;99.90;;;;;;5024811;28;20057;-85
2022/04/23 03:45:04;;;;;;;34.30;21.65;;;9.00;99.90;;;;;;5020773;28;20022;-86
2022/04/23 03:47:31;;;;;;;31.55;21.23;;;9.10;99.90;;;;;;5023756;28;20539;-84
2022/04/23 03:50:06;;;;;;;35.08;21.77;;;9.00;99.90;;;;;;5017781;28;20040;-83
2022/04/23 03:52:32;;;;;;;33.05;21.10;;;9.00;99.90;;;;;;5025147;28;20032;-83
2022/04/23 03:54:57;;;;;;;31.50;20.55;;;9.00;99.90;;;;;;5016412;28;20063;-83
2022/04/23 03:57:23;;;;;;;32.55;21.00;;;9.00;99.90;;;;;;5016159;28;20029;-83
2022/04/23 03:59:49;;;;;;;34.42;21.77;;;9.00;99.90;;;;;;5019293;28;20128;-83
2022/04/23 04:02:14;;;;;;;33.70;22.05;;;9.00;99.90;;;;;;5025889;28;20022;-83
2022/04/23 04:04:41;;;;;;;33.28;21.77;;;8.90;99.90;;;;;;5021383;28;20503;-83
2022/04/23 04:07:07;;;;;;;31.15;20.67;;;8.90;99.90;;;;;;5022465;28;20036;-83
2022/04/23 04:09:32;;;;;;;33.65;22.15;;;8.90;99.90;;;;;;5023367;28;20029;-84
2022/04/23 04:12:01;;;;;;;33.92;21.30;;;8.90;99.90;;;;;;5022467;28;20025;-83
2022/04/23 04:14:27;;;;;;;34.20;21.27;;;8.90;99.90;;;;;;5017812;28;20026;-83
2022/04/23 04:16:53;;;;;;;33.95;21.17;;;9.00;99.90;;;;;;5023274;28;20164;-83
2022/04/23 04:19:19;;;;;;;33.47;21.27;;;9.00;99.90;;;;;;5025941;28;20058;-83
2022/04/23 04:21:46;;;;;;;37.47;22.08;;;8.90;99.90;;;;;;5021210;28;20635;-83
2022/04/23 04:24:13;;;;;;;31.73;21.02;;;8.90;99.90;;;;;;5028608;28;20117;-83
2022/04/23 04:26:44;;;;;;;35.45;22.38;;;8.90;99.90;;;;;;5024934;28;20061;-82
2022/04/23 04:29:14;;;;;;;33.90;21.55;;;9.00;99.90;;;;;;5028499;28;20021;-83
2022/04/23 04:31:49;;;;;;;33.97;21.85;;;8.90;99.90;;;;;;5022963;28;20048;-82
2022/04/23 04:34:24;;;;;;;31.80;20.73;;;8.90;99.90;;;;;;5028238;28;20025;-82
2022/04/23 04:36:51;;;;;;;34.63;21.48;;;9.00;99.90;;;;;;5023612;28;20112;-81
2022/04/23 04:39:17;;;;;;;33.30;20.27;;;9.10;99.90;;;;;;5022393;28;20017;-81
2022/04/23 04:41:44;;;;;;;29.05;19.42;;;9.20;99.90;;;;;;5024487;28;20017;-85
2022/04/23 04:44:10;;;;;;;32.40;20.77;;;9.20;99.90;;;;;;5042105;28;20040;-83
2022/04/23 04:46:36;;;;;;;29.60;19.65;;;9.30;99.90;;;;;;5027516;28;20026;-82
2022/04/23 04:49:03;;;;;;;29.25;18.25;;;9.30;99.90;;;;;;5023111;28;20523;-83
2022/04/23 04:51:29;;;;;;;29.35;19.27;;;9.40;99.90;;;;;;5016961;28;20038;-81
2022/04/23 04:53:56;;;;;;;29.02;19.42;;;9.40;99.90;;;;;;5025760;28;21064;-81
2022/04/23 04:56:22;;;;;;;30.58;18.58;;;9.50;99.90;;;;;;5025488;28;20033;-81
2022/04/23 04:58:48;;;;;;;26.33;17.60;;;9.60;99.90;;;;;;5025868;28;20044;-83
2022/04/23 05:01:14;;;;;;;27.60;17.33;;;9.60;99.90;;;;;;5021789;28;20053;-85
2022/04/23 05:03:40;;;;;;;22.15;15.50;;;9.70;99.90;;;;;;5028647;28;20482;-85
2022/04/23 05:06:07;;;;;;;24.15;16.17;;;9.80;99.90;;;;;;5023657;28;20128;-83
2022/04/23 05:08:34;;;;;;;22.45;15.13;;;9.80;99.90;;;;;;5024537;28;20032;-82
2022/04/23 05:11:00;;;;;;;24.38;15.88;;;9.90;99.90;;;;;;5027883;28;20490;-81
2022/04/23 05:13:25;;;;;;;25.52;16.02;;;9.90;99.90;;;;;;5027558;28;20044;-82
2022/04/23 05:15:51;;;;;;;23.70;16.27;;;9.90;99.90;;;;;;5026536;28;20029;-82
2022/04/23 05:18:17;;;;;;;22.85;15.15;;;10.00;99.90;;;;;;5024290;28;20037;-79
2022/04/23 05:20:43;;;;;;;21.15;15.00;;;10.00;99.90;;;;;;5025486;28;20041;-83
2022/04/23 05:23:08;;;;;;;21.27;14.43;;;10.10;99.90;;;;;;5027734;28;20025;-83
2022/04/23 05:25:34;;;;;;;23.17;15.68;;;10.10;99.90;;;;;;5020334;28;20030;-83
2022/04/23 05:27:59;;;;;;;22.40;14.60;;;10.10;99.90;;;;;;5020671;28;20528;-79
2022/04/23 05:30:25;;;;;;;24.35;15.52;;;10.10;99.90;;;;;;5018909;28;20025;-80
2022/04/23 05:32:51;;;;;;;22.05;15.60;;;10.10;99.90;;;;;;5023581;28;20032;-83
2022/04/23 05:35:19;;;;;;;20.80;14.50;;;10.20;99.90;;;;;;5022834;28;20045;-81
2022/04/23 05:37:45;;;;;;;22.05;14.35;;;10.20;99.90;;;;;;5019583;28;20032;-85
2022/04/23 05:40:11;;;;;;;19.58;14.18;;;10.20;99.90;;;;;;5023520;28;20032;-79
2022/04/23 05:42:37;;;;;;;21.02;14.40;;;10.30;99.90;;;;;;5021773;28;20093;-85
2022/04/23 05:45:03;;;;;;;20.55;13.95;;;10.30;99.90;;;;;;5025201;28;20048;-87
2022/04/23 05:47:29;;;;;;;18.13;12.73;;;10.40;99.90;;;;;;5021168;28;20477;-84
2022/04/23 05:49:54;;;;;;;20.73;13.95;;;10.40;99.90;;;;;;5027136;28;20028;-85
2022/04/23 05:52:22;;;;;;;18.85;12.70;;;10.40;99.90;;;;;;5022181;28;20041;-85
2022/04/23 05:54:48;;;;;;;20.52;13.02;;;10.40;99.90;;;;;;5028150;28;20030;-84
2022/04/23 05:57:15;;;;;;;19.10;12.77;;;10.40;99.90;;;;;;5022307;28;20507;-83
2022/04/23 05:59:40;;;;;;;18.13;12.57;;;10.40;99.90;;;;;;5027010;28;20033;-84
2022/04/23 06:02:07;;;;;;;18.42;12.23;;;10.50;99.90;;;;;;5024592;28;20028;-81
2022/04/23 06:04:33;;;;;;;18.10;12.43;;;10.40;99.90;;;;;;5024690;28;20404;-79
2022/04/23 06:06:59;;;;;;;18.00;12.00;;;10.50;99.90;;;;;;5019688;28;20017;-80
2022/04/23 06:09:24;;;;;;;17.65;12.40;;;10.50;99.90;;;;;;5024033;28;20075;-81
2022/04/23 06:11:50;;;;;;;16.23;10.82;;;10.50;99.90;;;;;;5023102;28;20068;-80
2022/04/23 06:14:16;;;;;;;17.92;12.38;;;10.70;99.90;;;;;;5024947;28;20026;-80
2022/04/23 06:16:41;;;;;;;17.60;11.95;;;10.70;99.90;;;;;;5022822;28;20037;-81
2022/04/23 06:19:07;;;;;;;16.13;11.25;;;10.90;99.90;;;;;;5019669;28;20022;-82
2022/04/23 06:21:32;;;;;;;17.23;11.25;;;10.90;99.90;;;;;;5026935;28;20449;-81
2022/04/23 06:23:58;;;;;;;16.95;11.38;;;10.90;99.90;;;;;;5019915;28;20025;-80
2022/04/23 06:26:25;;;;;;;17.33;11.25;;;10.90;99.90;;;;;;5021175;28;20022;-80
2022/04/23 06:28:50;;;;;;;17.00;11.05;;;11.00;99.90;;;;;;5019628;28;20096;-81
2022/04/23 06:31:16;;;;;;;17.85;11.60;;;11.10;99.90;;;;;;5023827;28;20513;-80
2022/04/23 06:33:42;;;;;;;14.60;10.40;;;11.10;99.90;;;;;;5020761;28;20485;-81
2022/04/23 06:36:11;;;;;;;16.42;11.60;;;11.10;99.90;;;;;;5020116;28;20528;-81
2022/04/23 06:38:37;;;;;;;12.65;9.55;;;11.10;99.90;;;;;;5017773;28;20060;-81
2022/04/23 06:41:03;;;;;;;15.30;10.85;;;11.00;99.90;;;;;;5020294;28;20025;-81
2022/04/23 06:43:28;;;;;;;14.63;10.07;;;11.00;99.90;;;;;;5022089;28;20066;-81
2022/04/23 06:45:54;;;;;;;14.27;9.82;;;11.20;99.90;;;;;;5015801;28;20037;-80
2022/04/23 06:48:19;;;;;;;14.38;10.73;;;11.20;99.90;;;;;;5022330;28;20029;-81
2022/04/23 06:50:45;;;;;;;16.05;9.93;;;11.20;99.90;;;;;;5021521;28;20034;-81
2022/04/23 06:53:11;;;;;;;12.32;9.10;;;11.20;99.90;;;;;;5024794;28;20040;-80
2022/04/23 06:55:36;;;;;;;14.60;9.38;;;11.20;99.90;;;;;;5024503;28;20482;-80
2022/04/23 06:58:02;;;;;;;15.10;10.27;;;11.20;99.90;;;;;;5022398;28;20041;-81
2022/04/23 07:00:28;;;;;;;11.30;8.27;;;11.20;99.90;;;;;;5022472;28;20049;-81
2022/04/23 07:02:54;;;;;;;12.32;8.60;;;11.10;99.90;;;;;;5018401;28;20029;-81
2022/04/23 07:05:20;;;;;;;11.60;8.55;;;11.20;99.90;;;;;;5022826;28;20032;-80
2022/04/23 07:07:59;;;;;;;14.68;8.45;;;11.20;99.90;;;;;;5020050;28;20032;-80
2022/04/23 07:10:26;;;;;;;10.77;7.95;;;11.20;99.90;;;;;;5023226;28;20036;-80
2022/04/23 07:12:53;;;;;;;11.45;7.75;;;11.20;99.90;;;;;;5017825;28;20045;-80
2022/04/23 07:15:19;;;;;;;11.10;8.00;;;11.30;99.90;;;;;;5021683;28;20065;-80
2022/04/23 07:17:46;;;;;;;9.02;7.05;;;11.40;99.90;;;;;;5015322;28;20030;-79
2022/04/23 07:20:13;;;;;;;10.77;7.82;;;11.50;99.90;;;;;;5022007;28;20029;-80
2022/04/23 07:22:38;;;;;;;11.90;8.05;;;11.60;99.90;;;;;;5020898;28;20117;-81
2022/04/23 07:25:07;;;;;;;10.82;7.47;;;11.80;99.90;;;;;;5015289;28;20103;-80
2022/04/23 07:27:32;;;;;;;9.77;7.35;;;11.80;99.90;;;;;;5024832;28;20044;-79
2022/04/23 07:29:58;;;;;;;11.25;7.65;;;11.90;99.90;;;;;;5023514;28;20485;-80
2022/04/23 07:32:25;;;;;;;9.85;7.30;;;12.00;99.90;;;;;;5020576;28;20143;-81
2022/04/23 07:37:35;;;;;;;9.60;6.80;;;11.90;99.90;;;;;;5027020;28;20791;-80
2022/04/23 07:40:10;;;;;;;10.98;7.47;;;11.90;99.90;;;;;;5038891;28;20400;-80
2022/04/23 07:42:36;;;;;;;10.48;6.90;;;11.90;99.90;;;;;;5028589;28;20473;-79
2022/04/23 07:45:03;;;;;;;8.73;6.50;;;12.00;99.90;;;;;;5034000;28;20036;-80
2022/04/23 07:47:28;;;;;;;9.77;6.85;;;12.00;99.90;;;;;;5047919;28;20032;-81
2022/04/23 07:49:54;;;;;;;11.82;7.38;;;12.00;99.90;;;;;;5049443;28;20029;-80
2022/04/23 07:52:20;;;;;;;9.82;7.35;;;12.20;99.90;;;;;;5046833;28;20120;-80
2022/04/23 07:54:45;;;;;;;9.57;6.72;;;12.20;99.90;;;;;;5043045;28;20040;-80
2022/04/23 07:57:12;;;;;;;9.20;6.60;;;12.30;99.90;;;;;;5016316;28;20045;-80
2022/04/23 07:59:41;;;;;;;9.75;6.85;;;12.40;99.90;;;;;;5030104;28;20057;-80
2022/04/23 08:02:09;;;;;;;9.75;7.10;;;12.70;99.90;;;;;;5028736;28;20021;-80
2022/04/23 08:04:35;;;;;;;9.23;6.45;;;12.80;99.90;;;;;;5028495;28;20511;-80
2022/04/23 08:07:01;;;;;;;10.00;7.07;;;12.90;99.90;;;;;;5023888;28;20075;-81
2022/04/23 08:09:26;;;;;;;8.57;6.55;;;13.00;99.90;;;;;;5026014;28;20033;-81
2022/04/23 08:11:52;;;;;;;8.50;6.40;;;12.90;99.90;;;;;;5027796;28;20029;-81
2022/04/23 08:14:18;;;;;;;8.52;6.50;;;12.80;99.90;;;;;;5030134;28;20473;-81
2022/04/23 08:16:45;;;;;;;10.02;6.57;;;12.80;99.90;;;;;;5030378;28;20030;-81
2022/04/23 08:19:11;;;;;;;9.15;6.00;;;12.60;99.90;;;;;;5031029;28;20017;-80
2022/04/23 08:21:36;;;;;;;8.32;6.20;;;12.70;99.90;;;;;;5029057;28;20084;-80
2022/04/23 08:24:02;;;;;;;8.65;6.30;;;12.80;99.90;;;;;;5027251;28;20055;-80
2022/04/23 08:26:28;;;;;;;9.63;6.22;;;12.90;99.90;;;;;;5027399;28;20051;-76
2022/04/23 08:31:37;;;;;;;8.93;6.43;;;13.10;99.90;;;;;;5027479;28;20099;-79
2022/04/23 08:34:03;;;;;;;8.73;6.10;;;13.30;99.90;;;;;;5023304;28;20041;-78
2022/04/23 08:36:36;;;;;;;7.78;6.15;;;13.30;99.90;;;;;;5024829;28;20588;-79
2022/04/23 08:39:04;;;;;;;8.48;6.35;;;13.30;99.90;;;;;;5027849;28;20495;-78
2022/04/23 08:41:31;;;;;;;14.95;6.82;;;13.30;99.90;;;;;;5021302;28;20532;-79
2022/04/23 08:44:05;;;;;;;9.43;6.60;;;13.40;99.90;;;;;;5026621;28;20821;-79
2022/04/23 08:46:32;;;;;;;9.82;6.93;;;13.50;99.90;;;;;;5024501;28;20025;-79
2022/04/23 08:49:08;;;;;;;10.15;7.18;;;13.50;99.90;;;;;;5028261;28;20121;-80
2022/04/23 08:51:34;;;;;;;10.45;7.22;;;13.50;99.90;;;;;;5020130;28;20029;-85
2022/04/23 08:54:05;;;;;;;9.13;6.88;;;13.70;99.90;;;;;;5020910;28;20025;-81
2022/04/23 08:56:31;;;;;;;10.80;7.90;;;13.60;99.90;;;;;;5030898;28;20017;-81
2022/04/23 08:58:57;;;;;;;10.40;8.13;;;13.40;99.90;;;;;;5016529;28;20040;-81
2022/04/23 09:01:23;;;;;;;10.27;7.32;;;13.50;99.90;;;;;;5030775;28;20033;-82
2022/04/23 09:03:49;;;;;;;12.57;7.93;;;13.70;99.90;;;;;;5025926;28;20028;-82
2022/04/23 09:06:15;;;;;;;13.30;7.82;;;13.80;99.90;;;;;;5022310;28;20034;-80
2022/04/23 09:09:10;;;;;;;12.30;8.07;;;13.90;99.90;;;;;;5041584;23;20320;-77
2022/04/23 09:11:37;;;;;;;12.45;8.07;;;14.10;99.90;;;;;;5001656;28;20079;-78
2022/04/23 09:14:07;;;;;;;11.75;8.20;;;14.30;99.40;;;;;;5013675;28;20037;-77
2022/04/23 09:25:10;;;;;;;11.80;8.40;;;14.50;98.60;;;;;;5007918;28;20393;-76
2022/04/23 09:27:41;;;;;;;12.75;9.27;;;14.60;98.30;;;;;;5004373;28;20037;-77
2022/04/23 09:30:07;;;;;;;10.88;8.32;;;14.60;98.20;;;;;;5005614;28;20113;-79
2022/04/23 09:32:34;;;;;;;12.82;7.70;;;14.70;98.10;;;;;;5002425;28;20026;-78
2022/04/23 09:35:10;;;;;;;13.73;8.23;;;14.80;98.10;;;;;;5007500;28;20537;-79
2022/04/23 09:40:22;;;;;;;9.57;7.10;;;15.00;97.50;;;;;;5008911;28;20449;-78
2022/04/23 09:43:00;;;;;;;12.52;7.97;;;15.20;96.90;;;;;;5005919;28;20014;-79
2022/04/23 09:45:26;;;;;;;12.70;8.45;;;15.10;96.50;;;;;;5005934;28;20038;-78
2022/04/23 09:47:56;;;;;;;11.82;8.25;;;15.00;96.80;;;;;;5007391;28;20417;-79
2022/04/23 09:50:22;;;;;;;10.15;7.57;;;15.10;96.90;;;;;;5008216;28;20107;-78
2022/04/23 09:52:49;;;;;;;11.82;7.32;;;15.00;96.90;;;;;;5008503;28;20029;-79
2022/04/23 09:55:20;;;;;;;11.05;7.68;;;15.10;96.70;;;;;;5004471;28;20027;-79
2022/04/23 09:57:47;;;;;;;11.65;7.97;;;15.00;96.90;;;;;;5006343;28;20030;-79
2022/04/23 10:00:13;;;;;;;11.57;8.50;;;15.10;96.70;;;;;;5004831;28;20026;-79
2022/04/23 10:02:41;;;;;;;12.70;8.90;;;15.10;96.30;;;;;;5008106;28;20030;-78
2022/04/23 10:05:11;;;;;;;10.20;8.20;;;15.00;96.50;;;;;;5009554;28;20077;-79
2022/04/23 10:07:40;;;;;;;14.02;9.10;;;14.80;96.60;;;;;;5005446;28;20050;-80
2022/04/23 10:10:10;;;;;;;13.02;9.05;;;14.70;96.90;;;;;;4999630;28;21302;-78
2022/04/23 10:12:37;;;;;;;11.75;8.55;;;14.70;96.60;;;;;;5006401;28;20513;-80
2022/04/23 10:15:04;;;;;;;20.55;10.95;;;14.60;96.80;;;;;;5009056;28;20034;-78
2022/04/23 10:17:31;;;;;;;16.25;9.52;;;14.60;97.10;;;;;;5007153;28;20065;-80
2022/04/23 10:19:59;;;;;;;13.68;8.93;;;14.60;97.00;;;;;;5008476;28;20608;-78
2022/04/23 10:22:39;;;;;;;12.07;8.68;;;14.50;97.30;;;;;;5004684;28;20664;-79
2022/04/23 10:25:04;;;;;;;13.85;8.68;;;14.60;97.20;;;;;;5004126;28;20673;-79
2022/04/23 10:27:30;;;;;;;14.65;8.85;;;14.70;96.90;;;;;;5005356;28;20038;-79
2022/04/23 10:30:02;;;;;;;13.82;9.18;;;14.70;96.50;;;;;;5006326;28;20033;-80
2022/04/23 10:32:40;;;;;;;12.43;9.05;;;14.60;96.40;;;;;;5006601;28;20096;-79
2022/04/23 10:35:17;;;;;;;14.68;9.18;;;14.50;96.80;;;;;;5002941;28;20125;-79
2022/04/23 10:37:45;;;;;;;13.70;9.68;;;14.40;96.90;;;;;;5004627;28;20038;-80
2022/04/23 10:40:11;;;;;;;13.90;9.15;;;14.30;97.50;;;;;;5005563;28;20033;-80
2022/04/23 10:42:38;;;;;;;18.33;9.63;;;14.30;97.60;;;;;;5006524;28;20037;-79
2022/04/23 10:45:06;;;;;;;15.45;8.70;;;14.30;97.50;;;;;;5008070;28;20029;-81
2022/04/23 10:47:39;;;;;;;13.50;8.93;;;14.30;97.60;;;;;;5005024;28;20033;-80
2022/04/23 10:50:22;;;;;;;14.25;9.80;;;14.30;97.50;;;;;;5004790;28;20036;-80
2022/04/23 10:52:55;;;;;;;13.63;9.25;;;14.30;97.40;;;;;;5001582;28;20022;-80
2022/04/23 10:55:22;;;;;;;15.13;9.83;;;14.50;97.10;;;;;;5005075;28;20026;-79
2022/04/23 10:57:50;;;;;;;11.98;8.63;;;14.60;96.70;;;;;;5007917;28;20646;-80
2022/04/23 11:00:21;;;;;;;15.40;9.27;;;14.60;96.60;;;;;;5006797;28;20033;-80
2022/04/23 11:02:57;;;;;;;13.80;9.00;;;14.70;96.70;;;;;;5005558;28;20030;-81
2022/04/23 11:13:49;;;;;;;13.18;9.43;;;15.30;95.60;;;;;;5006954;28;20569;-80
2022/04/23 11:16:19;;;;;;;14.70;9.80;;;15.40;95.20;;;;;;5004692;28;20034;-79
2022/04/23 11:18:46;;;;;;;14.80;10.32;;;15.40;95.30;;;;;;5002371;28;20486;-79
2022/04/23 11:21:21;;;;;;;13.98;9.80;;;15.40;95.00;;;;;;5005333;28;20390;-79
2022/04/23 11:23:47;;;;;;;13.88;9.85;;;15.40;94.80;;;;;;5007388;28;20095;-79
2022/04/23 11:26:28;;;;;;;15.27;9.32;;;15.50;94.70;;;;;;5001050;28;20530;-80
2022/04/23 11:28:58;;;;;;;14.35;10.07;;;15.50;94.40;;;;;;5001564;28;20030;-80
2022/04/23 11:31:24;;;;;;;15.30;9.65;;;15.40;94.60;;;;;;5007075;28;20026;-80
2022/04/23 11:33:57;;;;;;;13.52;9.73;;;15.10;94.90;;;;;;5008505;28;20057;-79
2022/04/23 11:36:27;;;;;;;14.65;9.20;;;14.90;95.30;;;;;;5005870;28;20026;-79
2022/04/23 11:38:54;;;;;;;14.05;9.85;;;14.90;95.60;;;;;;5010613;28;20040;-79
2022/04/23 11:41:29;;;;;;;13.25;9.52;;;14.60;95.80;;;;;;5010269;28;20092;-80
2022/04/23 11:43:55;;;;;;;14.85;10.00;;;14.70;96.00;;;;;;5012120;28;20151;-79
2022/04/23 11:46:21;;;;;;;13.90;9.57;;;14.70;95.90;;;;;;5012038;28;20034;-80
2022/04/23 11:48:48;;;;;;;15.07;10.35;;;14.70;95.90;;;;;;5007015;28;20018;-79
2022/04/23 11:51:23;;;;;;;14.43;9.93;;;14.70;95.80;;;;;;5011338;28;20049;-79
2022/04/23 11:53:52;;;;;;;14.52;9.23;;;14.60;96.00;;;;;;5008286;28;20030;-79
2022/04/23 11:56:26;;;;;;;14.77;9.52;;;14.80;96.30;;;;;;5009122;28;20124;-79
2022/04/23 11:58:52;;;;;;;;;;;15.00;95.50;;;;;;5006282;28;20375;-78
2022/04/23 12:01:20;;;;;;;13.13;9.38;;;15.00;95.40;;;;;;5010339;28;19914;-79
2022/04/23 12:03:50;;;;;;;13.80;9.13;;;15.10;95.70;;;;;;5007821;28;20030;-79
2022/04/23 12:06:16;;;;;;;14.80;10.35;;;15.00;95.20;;;;;;5010075;28;20037;-78
2022/04/23 12:08:41;;;;;;;14.55;9.85;;;14.90;95.50;;;;;;5004546;28;20383;-78
2022/04/23 12:11:23;;;;;;;15.45;10.35;;;14.90;95.60;;;;;;5004796;28;20065;-79
2022/04/23 12:13:50;;;;;;;12.57;9.75;;;14.90;95.60;;;;;;5011737;28;20457;-79
2022/04/23 12:16:41;;;;;;;14.35;9.48;;;14.70;95.70;;;;;;5005957;28;20030;-79
2022/04/23 12:19:11;;;;;;;13.30;9.65;;;14.70;95.80;;;;;;5007843;28;20417;-79
2022/04/23 12:21:37;;;;;;;15.85;10.70;;;14.60;96.00;;;;;;5006343;28;20128;-79
2022/04/23 12:24:04;;;;;;;16.48;10.55;;;14.40;96.10;;;;;;5007950;28;20048;-79
2022/04/23 12:26:35;;;;;;;14.93;10.68;;;14.50;96.50;;;;;;5008084;28;20421;-79
2022/04/23 12:43:23;;;;;;;13.52;9.63;;;15.30;95.60;;;;;;5009351;28;20391;-79
2022/04/23 12:45:50;;;;;;;16.13;9.45;;;15.30;95.30;;;;;;5008145;28;20048;-79
2022/04/23 12:48:16;;;;;;;14.65;9.35;;;15.10;95.30;;;;;;5010362;28;20053;-79
2022/04/23 12:50:44;;;;;;;13.93;9.35;;;15.20;95.40;;;;;;5010339;28;20081;-79
2022/04/23 12:53:11;;;;;;;13.85;9.43;;;15.30;95.50;;;;;;5003810;28;20490;-78
2022/04/23 12:55:48;;;;;;;13.80;9.30;;;15.40;95.40;;;;;;5003896;28;20080;-79
2022/04/23 12:58:14;;;;;;;12.93;9.20;;;15.50;95.20;;;;;;5002403;28;20420;-77
2022/04/23 13:00:41;;;;;;;16.42;9.35;;;15.60;94.80;;;;;;5000878;28;20030;-76
2022/04/23 13:05:49;;;;;;;13.60;9.68;;;15.30;95.10;;;;;;5002232;28;20041;-75
2022/04/23 13:11:24;;;;;;;14.55;8.73;;;15.80;95.10;;;;;;5005080;28;20088;-75
2022/04/23 13:13:45;;;;;;;12.60;9.60;;;16.00;94.60;;;;;;4998695;28;20038;-74
2022/04/23 13:16:11;;;;;;;12.90;9.40;;;15.90;94.10;;;;;;5008149;28;20030;-73
2022/04/23 13:18:37;;;;;;;16.50;9.57;;;16.00;94.10;;;;;;5004383;28;20030;-75
2022/04/23 13:21:05;;;;;;;14.45;9.38;;;16.10;94.20;;;;;;5005437;28;21348;-75
2022/04/23 13:23:32;;;;;;;16.25;9.38;;;15.80;94.10;;;;;;5008496;28;20106;-75
2022/04/23 13:25:57;;;;;;;12.40;9.25;;;15.90;94.20;;;;;;5010194;28;20022;-75